Time;durP1;ratioP1;P1;durP2;ratioP2;P2;SDS_P1;SDS_P2;PMS_P1;PMS_P2;Temp;Humidity;BMP_temperature;BMP_pressure;BME280_temperature;BME280_humidity;BME280_pressure;Samples;Min_cycle;Max_cycle;Signal;HPM_P1;HPM_P2
2021/07/29 00:00:50;;;;;;;;;4.25;4.25;;;;;19.32;51.09;101031.91;4995330;28;45279;-81
2021/07/29 00:03:16;;;;;;;;;3.00;3.00;;;;;19.27;50.93;101025.84;4973948;28;45262;-80
2021/07/29 00:05:41;;;;;;;;;3.75;2.75;;;;;19.28;51.08;101033.81;4961445;28;45851;-81
2021/07/29 00:08:06;;;;;;;;;2.00;2.00;;;;;19.24;51.23;101034.84;4973312;28;45435;-81
2021/07/29 00:10:34;;;;;;;;;4.25;3.00;;;;;19.22;50.98;101031.38;4965805;28;45421;-80
2021/07/29 00:12:59;;;;;;;;;3.00;3.00;;;;;19.15;51.59;101033.38;4976406;28;45387;-79
2021/07/29 00:15:25;;;;;;;;;4.00;2.00;;;;;19.18;51.71;101038.59;4960537;28;46191;-78
2021/07/29 00:20:21;;;;;;;;;3.00;2.75;;;;;19.15;51.85;101032.50;4966182;28;45246;-79
2021/07/29 00:22:49;;;;;;;;;3.00;2.75;;;;;19.12;51.96;101037.97;4961216;28;45436;-78
2021/07/29 00:25:17;;;;;;;;;5.67;3.67;;;;;19.05;52.11;101026.59;4961093;28;45396;-78
2021/07/29 00:27:44;;;;;;;;;3.75;3.00;;;;;19.05;52.41;101034.63;4963418;28;45278;-79
2021/07/29 00:30:11;;;;;;;;;3.00;3.00;;;;;18.95;52.19;101020.72;4982525;28;45258;-79
2021/07/29 00:32:41;;;;;;;;;3.00;3.00;;;;;18.96;52.88;101026.94;4981368;28;45584;-79
2021/07/29 00:35:09;;;;;;;;;4.00;3.00;;;;;19.01;52.75;101034.78;4991050;28;45979;-79
2021/07/29 00:37:35;;;;;;;;;5.00;4.00;;;;;18.96;53.00;101029.59;4963052;28;45230;-79
2021/07/29 00:40:02;;;;;;;;;5.00;3.67;;;;;18.94;53.03;101031.44;4963008;28;45449;-79
2021/07/29 00:42:27;;;;;;;;;4.33;3.33;;;;;18.89;53.26;101025.38;4965807;28;45534;-78
2021/07/29 00:44:52;;;;;;;;;2.67;2.67;;;;;18.84;53.25;101024.66;4964743;28;46076;-79
2021/07/29 00:47:19;;;;;;;;;2.00;2.00;;;;;18.81;53.53;101022.09;4964591;28;45405;-79
2021/07/29 00:49:46;;;;;;;;;4.00;4.00;;;;;18.79;53.51;101031.94;4964475;28;45247;-78
2021/07/29 00:52:16;;;;;;;;;5.00;4.33;;;;;18.76;53.58;101029.38;4965010;28;45444;-79
2021/07/29 00:54:45;;;;;;;;;6.00;5.00;;;;;18.71;53.88;101024.16;4964050;28;45428;-78
2021/07/29 00:57:13;;;;;;;;;4.50;4.50;;;;;18.67;54.26;101027.88;4964718;28;45246;-78
2021/07/29 00:59:39;;;;;;;;;2.33;2.33;;;;;18.66;54.28;101032.34;4979403;28;45371;-79
2021/07/29 01:02:04;;;;;;;;;2.00;2.00;;;;;18.63;54.25;101027.13;4992636;28;45454;-79
2021/07/29 01:04:30;;;;;;;;;4.75;4.00;;;;;18.57;54.31;101023.75;4968170;28;45466;-79
2021/07/29 01:06:56;;;;;;;;;6.00;5.00;;;;;18.55;54.66;101039.81;4966285;28;45434;-78
2021/07/29 01:09:21;;;;;;;;;3.00;3.00;;;;;18.54;54.56;101029.19;4981342;28;45361;-79
2021/07/29 01:11:47;;;;;;;;;5.25;4.00;;;;;18.43;54.82;101014.41;4962790;28;45494;-79
2021/07/29 01:14:14;;;;;;;;;5.00;3.00;;;;;18.49;55.10;101026.66;4946176;28;45673;-79
2021/07/29 01:16:39;;;;;;;;;4.00;4.00;;;;;18.45;55.09;101028.56;4964420;28;45335;-79
2021/07/29 01:19:06;;;;;;;;;3.50;3.50;;;;;18.36;54.88;101014.66;4963891;28;45369;-79
2021/07/29 01:21:32;;;;;;;;;5.00;4.00;;;;;18.40;55.05;101035.84;4963851;28;45501;-80
2021/07/29 01:23:59;;;;;;;;;5.00;4.00;;;;;18.31;55.63;101028.13;4963403;28;46375;-79
2021/07/29 01:26:27;;;;;;;;;3.67;3.67;;;;;18.33;55.27;101038.75;4962543;28;45557;-78
2021/07/29 01:28:52;;;;;;;;;5.50;4.00;;;;;18.32;56.49;101035.22;4978596;28;45596;-78
2021/07/29 01:31:18;;;;;;;;;4.00;4.00;;;;;18.23;56.27;101024.81;4991379;28;45361;-78
2021/07/29 01:33:45;;;;;;;;;2.25;2.25;;;;;18.30;55.87;101039.69;4966602;28;47422;-79
2021/07/29 01:36:11;;;;;;;;;4.00;4.00;;;;;18.32;56.10;101032.53;4983328;28;45291;-79
2021/07/29 01:38:37;;;;;;;;;4.75;4.75;;;;;18.38;55.76;101040.34;4981746;28;45537;-79
2021/07/29 01:41:02;;;;;;;;;3.75;3.50;;;;;18.33;56.38;101034.28;4982992;28;45460;-78
2021/07/29 01:43:34;;;;;;;;;4.00;4.00;;;;;18.29;56.38;101028.19;4980959;28;46094;-79
2021/07/29 01:46:03;;;;;;;;;4.50;4.50;;;;;18.33;56.02;101041.41;4966845;28;45492;-79
2021/07/29 01:48:30;;;;;;;;;6.00;4.67;;;;;18.30;56.50;101050.38;4984758;28;46484;-78
2021/07/29 01:50:55;;;;;;;;;4.00;4.00;;;;;18.22;56.54;101036.41;4981659;28;45397;-79
2021/07/29 01:53:21;;;;;;;;;3.00;3.00;;;;;18.17;56.78;101038.34;4945735;28;47560;-78
2021/07/29 01:55:50;;;;;;;;;4.33;4.00;;;;;18.17;57.19;101044.53;4948598;28;45514;-80
2021/07/29 01:58:16;;;;;;;;;4.00;4.00;;;;;18.10;56.78;101023.47;4946200;28;45286;-81
2021/07/29 02:00:45;;;;;;;;;2.67;2.00;;;;;18.15;57.54;101046.41;4977246;28;45423;-80
2021/07/29 02:03:10;;;;;;;;;2.67;2.67;;;;;18.10;56.96;101034.13;4976137;28;46609;-80
2021/07/29 02:05:36;;;;;;;;;6.50;6.50;;;;;18.11;57.51;101041.19;4945746;28;45484;-80
2021/07/29 02:08:04;;;;;;;;;4.00;3.00;;;;;18.07;57.25;101051.94;4956844;28;45432;-80
2021/07/29 02:10:29;;;;;;;;;4.67;3.00;;;;;17.99;57.41;101042.41;4982119;28;45436;-80
2021/07/29 02:12:55;;;;;;;;;4.00;4.00;;;;;18.05;57.10;101044.91;4962643;28;46292;-80
2021/07/29 02:15:21;;;;;;;;;3.00;3.00;;;;;17.92;57.71;101031.09;4962485;28;45314;-80
2021/07/29 02:17:47;;;;;;;;;3.33;3.33;;;;;17.99;57.75;101039.75;4963129;28;45252;-80
2021/07/29 02:20:14;;;;;;;;;4.00;3.00;;;;;17.94;57.98;101041.72;4961437;28;45388;-80
2021/07/29 02:22:40;;;;;;;;;4.00;3.00;;;;;17.89;57.83;101032.97;4961565;28;46289;-80
2021/07/29 02:25:07;;;;;;;;;4.00;3.00;;;;;17.93;57.72;101043.47;4969979;28;45532;-80
2021/07/29 02:27:41;;;;;;;;;3.67;3.67;;;;;17.94;58.10;101045.25;4957475;28;45361;-78
2021/07/29 02:30:07;;;;;;;;;4.00;4.00;;;;;17.90;58.12;101035.56;4979587;28;45484;-78
2021/07/29 02:32:32;;;;;;;;;3.75;3.00;;;;;17.87;58.25;101034.81;4988514;28;46719;-78
2021/07/29 02:34:58;;;;;;;;;3.50;3.50;;;;;17.88;58.60;101042.72;4948857;28;45395;-79
2021/07/29 02:37:24;;;;;;;;;5.25;3.75;;;;;17.85;58.35;101035.72;4962203;28;45481;-78
2021/07/29 02:39:50;;;;;;;;;5.00;3.33;;;;;17.87;58.47;101037.47;4945757;28;45654;-78
2021/07/29 02:42:15;;;;;;;;;4.00;4.00;;;;;17.83;58.45;101034.03;4961454;28;47217;-78
2021/07/29 02:44:41;;;;;;;;;3.67;3.67;;;;;17.86;58.67;101055.25;4960819;28;45293;-78
2021/07/29 02:47:06;;;;;;;;;5.00;4.33;;;;;17.82;58.63;101046.44;4962544;28;45275;-79
2021/07/29 02:49:32;;;;;;;;;5.67;5.00;;;;;17.79;58.58;101040.34;4974175;28;45682;-79
2021/07/29 02:51:58;;;;;;;;;2.00;2.00;;;;;17.82;59.00;101050.91;4962488;28;45414;-79
2021/07/29 02:54:24;;;;;;;;;4.50;4.50;;;;;17.75;58.76;101043.97;4960824;28;45277;-78
2021/07/29 02:56:50;;;;;;;;;3.00;3.00;;;;;17.74;59.07;101039.56;4960858;28;45254;-79
2021/07/29 02:59:15;;;;;;;;;5.00;3.50;;;;;17.79;59.19;101053.66;4964141;28;45618;-78
2021/07/29 03:01:40;;;;;;;;;3.67;3.67;;;;;17.79;59.35;101067.84;4992193;28;46642;-78
2021/07/29 03:04:06;;;;;;;;;5.00;5.00;;;;;17.71;59.36;101055.63;4967179;28;45456;-78
2021/07/29 03:06:31;;;;;;;;;6.33;4.67;;;;;17.73;59.57;101067.13;4961142;28;45334;-79
2021/07/29 03:09:00;;;;;;;;;5.00;4.00;;;;;17.63;59.51;101054.06;4978239;28;45516;-79
2021/07/29 03:11:27;;;;;;;;;4.25;4.25;;;;;17.67;59.06;101065.53;4984922;28;48529;-78
2021/07/29 03:13:52;;;;;;;;;3.00;3.00;;;;;17.61;59.59;101063.00;4966784;28;45190;-79
2021/07/29 03:16:18;;;;;;;;;3.00;2.75;;;;;17.55;59.59;101053.41;4961961;28;45187;-78
2021/07/29 03:18:44;;;;;;;;;4.00;3.50;;;;;17.60;59.95;101075.44;4963643;28;45452;-79
2021/07/29 03:21:09;;;;;;;;;6.00;5.00;;;;;17.54;59.68;101070.31;4973300;28;45437;-78
2021/07/29 03:23:35;;;;;;;;;6.00;5.00;;;;;17.54;59.69;101072.97;4960743;28;45232;-79
2021/07/29 03:26:01;;;;;;;;;3.00;3.00;;;;;17.55;59.76;101081.81;4977063;28;45427;-79
2021/07/29 03:28:27;;;;;;;;;5.00;5.00;;;;;17.48;60.09;101062.50;4987932;28;46046;-79
2021/07/29 03:30:54;;;;;;;;;5.50;5.25;;;;;17.49;59.87;101074.00;4980888;28;45970;-78
2021/07/29 03:33:20;;;;;;;;;3.50;3.00;;;;;17.49;60.48;101071.34;4985561;28;45218;-78
2021/07/29 03:35:46;;;;;;;;;6.00;4.75;;;;;17.40;60.01;101064.47;4972563;28;45252;-79
2021/07/29 03:38:15;;;;;;;;;3.00;3.00;;;;;17.42;60.15;101073.28;4976507;28;45278;-79
2021/07/29 03:40:41;;;;;;;;;4.25;4.25;;;;;17.29;60.60;101059.41;4961940;28;46541;-78
2021/07/29 03:43:07;;;;;;;;;5.25;4.75;;;;;17.28;60.40;101067.47;4962735;28;45428;-79
2021/07/29 03:45:35;;;;;;;;;5.00;4.50;;;;;17.33;60.59;101082.41;4962168;28;45462;-79
2021/07/29 03:48:01;;;;;;;;;5.00;3.25;;;;;17.23;60.95;101061.38;4962315;28;45159;-78
2021/07/29 03:50:28;;;;;;;;;5.00;5.00;;;;;17.20;60.89;101065.00;4961866;28;45262;-78
2021/07/29 03:52:54;;;;;;;;;4.00;4.00;;;;;17.26;61.04;101078.13;4976409;28;45272;-78
2021/07/29 03:55:20;;;;;;;;;3.50;3.00;;;;;17.22;60.95;101078.28;4961538;28;45298;-79
2021/07/29 03:57:46;;;;;;;;;4.00;4.00;;;;;17.19;60.97;101077.44;4961082;28;45502;-79
2021/07/29 04:00:11;;;;;;;;;3.25;3.25;;;;;17.22;61.19;101086.25;5000389;28;45881;-78
2021/07/29 04:02:39;;;;;;;;;2.00;2.00;;;;;17.14;61.21;101084.66;4983248;28;45471;-79
2021/07/29 04:05:05;;;;;;;;;3.75;2.75;;;;;17.16;61.54;101081.94;4960366;28;45464;-79
2021/07/29 04:07:30;;;;;;;;;5.50;5.00;;;;;17.04;61.79;101071.63;4967265;28;45599;-78
2021/07/29 04:09:56;;;;;;;;;3.75;2.75;;;;;17.08;61.59;101082.16;4971529;28;45262;-79
2021/07/29 04:12:21;;;;;;;;;4.75;3.00;;;;;17.03;61.81;101076.09;4960780;28;45739;-78
2021/07/29 04:14:47;;;;;;;;;3.50;3.25;;;;;16.93;61.88;101061.25;4976183;28;45264;-79
2021/07/29 04:17:12;;;;;;;;;2.67;2.00;;;;;16.89;62.11;101063.13;4975790;28;45565;-79
2021/07/29 04:19:38;;;;;;;;;4.00;3.00;;;;;16.99;61.93;101079.72;4965094;28;45239;-79
2021/07/29 04:22:05;;;;;;;;;4.00;3.25;;;;;16.92;61.91;101079.00;4964620;28;45221;-79
2021/07/29 04:24:31;;;;;;;;;4.25;4.00;;;;;17.00;62.12;101085.91;4961579;28;45368;-79
2021/07/29 04:26:58;;;;;;;;;4.00;3.00;;;;;16.95;62.24;101083.38;4960881;28;45477;-79
2021/07/29 04:29:25;;;;;;;;;5.00;5.00;;;;;16.96;62.18;101091.31;4979731;28;45506;-79
2021/07/29 04:31:54;;;;;;;;;5.67;3.33;;;;;16.95;62.57;101088.69;4984362;28;45281;-79
2021/07/29 04:34:20;;;;;;;;;4.00;4.00;;;;;16.98;62.16;101105.44;4969830;28;45271;-79
2021/07/29 04:36:46;;;;;;;;;6.50;5.75;;;;;16.97;62.54;101092.16;4960810;28;45393;-79
2021/07/29 04:39:13;;;;;;;;;4.50;4.50;;;;;16.91;62.89;101077.25;4975930;28;46877;-79
2021/07/29 04:41:43;;;;;;;;;4.00;4.00;;;;;17.01;62.51;101093.84;4961020;28;45471;-79
2021/07/29 04:44:10;;;;;;;;;5.50;5.50;;;;;16.95;63.04;101076.25;4960170;28;45238;-79
2021/07/29 04:46:36;;;;;;;;;4.00;2.00;;;;;17.03;62.68;101092.03;4960934;28;45470;-79
2021/07/29 04:49:03;;;;;;;;;4.67;3.00;;;;;16.94;62.36;101078.94;4959495;28;46490;-79
2021/07/29 04:51:28;;;;;;;;;3.75;2.75;;;;;17.01;62.45;101083.22;4960123;28;46008;-79
2021/07/29 04:53:54;;;;;;;;;6.50;6.00;;;;;17.08;62.64;101084.81;4976027;28;45387;-79
2021/07/29 04:56:19;;;;;;;;;4.25;3.25;;;;;17.08;62.65;101089.25;4961095;28;45317;-79
2021/07/29 04:58:45;;;;;;;;;5.00;4.00;;;;;17.12;62.79;101096.25;4975460;28;46147;-80
2021/07/29 05:01:10;;;;;;;;;3.67;2.33;;;;;17.01;62.72;101075.25;4992017;28;45251;-79
2021/07/29 05:03:36;;;;;;;;;2.00;2.00;;;;;17.01;62.46;101075.25;4970394;28;45612;-79
2021/07/29 05:06:01;;;;;;;;;6.25;5.50;;;;;17.12;62.64;101093.59;4958634;28;45517;-79
2021/07/29 05:08:27;;;;;;;;;12.50;12.50;;;;;17.06;62.59;101083.97;4974805;28;45454;-79
2021/07/29 05:10:52;;;;;;;;;10.25;8.50;;;;;17.13;62.64;101090.00;4963449;28;45231;-79
2021/07/29 05:13:18;;;;;;;;;5.50;5.50;;;;;17.06;62.71;101091.97;4959089;28;45688;-79
2021/07/29 05:15:43;;;;;;;;;7.75;4.50;;;;;17.02;62.54;101084.94;4958994;28;45294;-79
2021/07/29 05:18:08;;;;;;;;;7.00;5.75;;;;;16.98;62.38;101070.88;4960394;28;46250;-79
2021/07/29 05:20:34;;;;;;;;;4.25;3.25;;;;;17.02;62.69;101086.75;4959332;28;45228;-79
2021/07/29 05:22:59;;;;;;;;;6.00;5.00;;;;;17.11;62.75;101097.19;4960557;28;45321;-79
2021/07/29 05:25:24;;;;;;;;;6.50;4.00;;;;;17.18;62.69;101112.06;4960544;28;45214;-79
2021/07/29 05:27:51;;;;;;;;;3.50;3.50;;;;;17.11;62.82;101095.38;4966044;28;45648;-79
2021/07/29 05:30:17;;;;;;;;;3.50;3.00;;;;;17.15;62.27;101101.50;4964210;28;45349;-79
2021/07/29 05:32:43;;;;;;;;;7.00;4.25;;;;;17.19;62.73;101109.38;4973874;28;45471;-81
2021/07/29 05:35:09;;;;;;;;;4.00;3.00;;;;;17.13;62.90;101098.88;4948689;28;45399;-87
2021/07/29 05:37:34;;;;;;;;;4.50;3.25;;;;;17.10;62.61;101095.41;4973053;28;47204;-86
2021/07/29 05:40:02;;;;;;;;;4.50;4.50;;;;;17.20;62.32;101108.44;4966083;28;45302;-84
2021/07/29 05:42:29;;;;;;;;;4.25;4.25;;;;;17.10;62.72;101095.41;4966778;28;45409;-82
2021/07/29 05:44:58;;;;;;;;;5.00;5.00;;;;;17.25;62.88;101118.09;4965336;28;45786;-84
2021/07/29 05:47:23;;;;;;;;;4.00;4.00;;;;;17.24;62.82;101103.94;4965940;28;46822;-84
2021/07/29 05:49:48;;;;;;;;;7.67;5.67;;;;;17.34;62.79;101116.06;4965630;28;45661;-84
2021/07/29 05:52:14;;;;;;;;;5.00;4.00;;;;;17.28;62.52;101094.94;4983581;28;45372;-86
2021/07/29 05:54:39;;;;;;;;;5.25;4.75;;;;;17.48;62.30;101120.16;4962424;28;45416;-86
2021/07/29 05:57:05;;;;;;;;;5.33;5.00;;;;;17.40;62.17;101101.72;4977240;28;46117;-85
2021/07/29 05:59:32;;;;;;;;;7.00;7.00;;;;;17.54;62.33;101112.03;4979544;28;45468;-82
2021/07/29 06:01:58;;;;;;;;;2.75;2.75;;;;;17.52;62.22;101108.53;4991816;28;45253;-81
2021/07/29 06:04:23;;;;;;;;;4.00;4.00;;;;;17.53;61.93;101115.59;4965403;28;45402;-82
2021/07/29 06:06:48;;;;;;;;;4.50;3.75;;;;;17.48;61.95;101112.16;4979245;28;45945;-82
2021/07/29 06:09:14;;;;;;;;;6.67;6.67;;;;;17.51;62.07;101114.75;4979859;28;45229;-83
2021/07/29 06:11:39;;;;;;;;;5.00;5.00;;;;;17.50;61.96;101119.19;4978640;28;45239;-82
2021/07/29 06:14:04;;;;;;;;;3.75;3.75;;;;;17.45;62.17;101115.78;4961951;28;45298;-90
2021/07/29 06:16:32;;;;;;;;;6.25;4.75;;;;;17.55;61.96;101135.06;4977599;28;48271;-80
2021/07/29 06:19:10;;;;;;;;;4.25;4.25;;;;;17.53;61.81;101129.75;4978022;28;45401;-84
2021/07/29 06:21:36;;;;;;;;;4.50;3.00;;;;;17.57;62.02;101133.25;4975367;28;45239;-82
2021/07/29 06:24:03;;;;;;;;;5.00;4.00;;;;;17.55;62.21;101119.09;4963407;28;45593;-83
2021/07/29 06:26:28;;;;;;;;;4.00;4.00;;;;;17.56;61.78;101135.03;4962233;28;47010;-82
2021/07/29 06:28:54;;;;;;;;;7.25;6.00;;;;;17.51;62.16;101128.97;4971962;28;45248;-86
2021/07/29 06:31:20;;;;;;;;;5.00;5.00;;;;;17.53;62.07;101126.25;4995445;28;45195;-85
2021/07/29 06:33:45;;;;;;;;;5.25;4.00;;;;;17.63;62.23;101135.72;4976817;28;45590;-82
2021/07/29 06:36:11;;;;;;;;;6.33;4.00;;;;;17.60;61.95;101130.50;4972114;28;46197;-84
2021/07/29 06:38:38;;;;;;;;;2.33;2.33;;;;;17.60;61.75;101133.16;4989534;28;46387;-81
2021/07/29 06:41:07;;;;;;;;;4.00;4.00;;;;;17.60;61.74;101131.34;4980381;28;45509;-83
2021/07/29 06:43:34;;;;;;;;;4.00;4.00;;;;;17.59;61.93;101124.31;4970657;28;45508;-82
2021/07/29 06:46:08;;;;;;;;;4.00;4.00;;;;;17.69;61.70;101143.53;4969559;28;47416;-82
2021/07/29 06:48:35;;;;;;;;;5.00;5.00;;;;;17.73;61.66;101155.88;4964193;28;45279;-81
2021/07/29 06:51:08;;;;;;;;;6.25;5.75;;;;;17.78;61.55;101150.44;4964483;28;45465;-82
2021/07/29 06:53:35;;;;;;;;;5.75;4.25;;;;;17.82;61.53;101158.31;4977941;28;45509;-81
2021/07/29 06:56:02;;;;;;;;;4.25;4.25;;;;;17.80;61.66;101148.63;4977570;28;48128;-83
2021/07/29 06:58:27;;;;;;;;;4.00;4.00;;;;;17.94;61.56;101161.59;4960032;28;45447;-83
2021/07/29 07:00:54;;;;;;;;;3.25;3.25;;;;;17.92;61.33;101153.63;4996357;28;45325;-84
2021/07/29 07:03:19;;;;;;;;;6.00;5.00;;;;;18.00;61.27;101164.94;4956589;28;45480;-83
2021/07/29 07:05:45;;;;;;;;;4.67;4.67;;;;;17.94;61.39;101157.13;4944491;28;46993;-83
2021/07/29 07:08:11;;;;;;;;;4.25;4.00;;;;;18.06;61.02;101164.75;4965972;28;45416;-83
2021/07/29 07:10:37;;;;;;;;;3.00;3.00;;;;;18.05;60.69;101157.69;4961418;28;45322;-83
2021/07/29 07:13:03;;;;;;;;;5.00;5.00;;;;;18.20;60.53;101187.47;4945628;28;45645;-84
2021/07/29 07:15:28;;;;;;;;;5.00;3.67;;;;;18.25;60.01;101183.75;4947754;28;46983;-84
2021/07/29 07:17:55;;;;;;;;;4.33;4.33;;;;;18.31;60.14;101180.06;4980447;28;45373;-84
2021/07/29 07:20:20;;;;;;;;;3.75;3.75;;;;;18.38;59.91;101178.09;4966776;28;45724;-86
2021/07/29 07:22:48;;;;;;;;;3.50;3.50;;;;;18.38;59.52;101175.44;4946763;28;45444;-83
2021/07/29 07:25:13;;;;;;;;;6.00;5.00;;;;;18.50;59.51;101185.75;4943688;28;47104;-83
2021/07/29 07:27:39;;;;;;;;;7.00;6.00;;;;;18.50;59.48;101170.63;4945298;28;45613;-84
2021/07/29 07:30:05;;;;;;;;;4.00;3.50;;;;;18.72;59.49;101192.16;4968492;28;45423;-83
2021/07/29 07:32:30;;;;;;;;;5.00;5.00;;;;;18.85;58.89;101191.84;4969583;28;45629;-83
2021/07/29 07:34:56;;;;;;;;;4.50;3.25;;;;;18.94;58.75;101183.53;4962181;28;46776;-86
2021/07/29 07:37:21;;;;;;;;;4.75;4.00;;;;;19.01;58.40;101189.56;4953272;28;45192;-82
2021/07/29 07:39:47;;;;;;;;;4.67;4.33;;;;;19.01;58.15;101176.22;4965958;28;45298;-81
2021/07/29 07:42:13;;;;;;;;;4.67;4.00;;;;;19.08;57.66;101178.63;4961606;28;45273;-81
2021/07/29 07:44:38;;;;;;;;;5.75;5.75;;;;;19.25;58.07;101186.09;4959211;28;48053;-81
2021/07/29 07:47:04;;;;;;;;;6.00;4.00;;;;;19.32;57.78;101181.41;4960987;28;45308;-81
2021/07/29 07:49:30;;;;;;;;;5.00;4.33;;;;;19.39;57.94;101180.31;4959774;28;45523;-82
2021/07/29 07:51:55;;;;;;;;;6.00;5.25;;;;;19.50;56.68;101182.63;4943785;28;45458;-81
2021/07/29 07:54:20;;;;;;;;;4.67;4.67;;;;;19.52;57.12;101180.78;4963873;28;45459;-81
2021/07/29 07:56:46;;;;;;;;;7.25;5.25;;;;;19.47;57.36;101172.03;4954411;28;45369;-81
2021/07/29 07:59:12;;;;;;;;;5.00;5.00;;;;;19.53;56.46;101174.50;4972042;28;45418;-79
2021/07/29 08:01:39;;;;;;;;;4.00;3.67;;;;;19.61;56.80;101175.09;4990891;28;45502;-83
2021/07/29 08:04:05;;;;;;;;;3.33;3.33;;;;;19.67;56.13;101174.03;4949466;28;47216;-81
2021/07/29 08:06:30;;;;;;;;;4.00;3.00;;;;;19.77;55.39;101178.16;4943553;28;45442;-81
2021/07/29 08:08:56;;;;;;;;;4.33;3.67;;;;;19.82;55.46;101174.38;4977621;28;45619;-82
2021/07/29 08:11:21;;;;;;;;;2.50;2.25;;;;;19.85;54.18;101180.56;4961112;28;45187;-85
2021/07/29 08:13:47;;;;;;;;;3.00;3.00;;;;;19.89;53.27;101191.09;4944050;28;48136;-84
2021/07/29 08:16:12;;;;;;;;;3.67;2.67;;;;;19.92;53.08;101198.13;4943873;28;45385;-81
2021/07/29 08:18:38;;;;;;;;;3.00;2.00;;;;;19.89;52.78;101179.50;4943600;28;45312;-82
2021/07/29 08:21:12;;;;;;;;;4.00;4.00;;;;;20.06;52.73;101187.81;4960026;28;45246;-79
2021/07/29 08:23:41;;;;;;;;;3.00;2.00;;;;;20.21;52.44;101181.91;4943256;28;47061;-78
2021/07/29 08:26:10;;;;;;;;;4.33;3.00;;;;;20.41;52.03;101174.94;4959599;28;45467;-78
2021/07/29 08:28:39;;;;;;;;;2.00;2.00;;;;;20.55;51.43;101161.94;4966154;28;45506;-77
2021/07/29 08:31:06;;;;;;;;;2.00;2.00;;;;;20.77;50.87;101180.72;4967711;28;45832;-76
2021/07/29 08:33:31;;;;;;;;;3.00;3.00;;;;;20.88;50.70;101166.91;4968345;28;47106;-77
2021/07/29 08:35:57;;;;;;;;;3.00;2.33;;;;;20.93;50.40;101170.28;4977859;28;45436;-78
2021/07/29 08:38:22;;;;;;;;;2.00;2.00;;;;;20.98;50.44;101175.44;4965808;28;45513;-81
2021/07/29 08:40:52;;;;;;;;;2.67;2.67;;;;;21.03;50.16;101174.31;4978655;28;45243;-82
2021/07/29 08:43:17;;;;;;;;;3.00;3.00;;;;;20.98;49.35;101170.06;4963576;28;45437;-86
2021/07/29 08:45:44;;;;;;;;;2.00;2.00;;;;;20.91;48.82;101164.97;4970968;28;45322;-86
2021/07/29 08:48:11;;;;;;;;;3.33;3.33;;;;;21.02;49.27;101164.56;4957772;28;45288;-82
2021/07/29 08:50:37;;;;;;;;;4.00;2.33;;;;;21.15;49.39;101176.50;4969719;28;45390;-82
2021/07/29 08:53:03;;;;;;;;;1.33;1.33;;;;;21.17;48.53;101173.78;4974334;28;46166;-81
2021/07/29 08:55:28;;;;;;;;;1.00;1.00;;;;;21.11;48.26;101165.97;4968151;28;45390;-83
2021/07/29 08:57:54;;;;;;;;;3.67;3.00;;;;;21.15;48.74;101170.28;4973994;28;45345;-82
2021/07/29 09:00:19;;;;;;;;;3.00;3.00;;;;;21.30;48.87;101169.66;4979965;28;45258;-82
2021/07/29 09:02:45;;;;;;;;;3.33;2.33;;;;;21.43;48.25;101167.34;4966269;28;46180;-81
2021/07/29 09:05:23;;;;;;;;;1.00;1.00;;;;;21.49;47.99;101167.09;4965631;28;45351;-83
2021/07/29 09:08:07;;;;;;;;;2.67;2.00;;;;;21.60;47.54;101174.69;4953750;28;45302;-84
2021/07/29 09:10:39;;;;;;;;;2.67;2.00;;;;;21.68;47.51;101172.56;4966358;28;45580;-83
2021/07/29 09:13:18;;;;;;;;;2.00;2.00;;;;;21.73;47.05;101156.25;4983041;28;45288;-85
2021/07/29 09:15:46;;;;;;;;;3.67;2.67;;;;;21.81;47.17;101156.78;4976135;28;45588;-83
2021/07/29 09:18:17;;;;;;;;;2.00;2.00;;;;;21.89;46.48;101160.03;4965763;28;45482;-81
2021/07/29 09:20:42;;;;;;;;;1.67;1.67;;;;;22.02;46.57;101158.53;4982406;28;45243;-81
2021/07/29 09:23:21;;;;;;;;;2.67;2.00;;;;;22.16;46.05;101162.38;4958842;28;47166;-81
2021/07/29 09:26:00;;;;;;;;;1.67;1.67;;;;;22.07;45.94;101144.91;4970056;28;46628;-81
2021/07/29 09:28:39;;;;;;;;;3.33;2.67;;;;;22.03;46.04;101168.31;4987306;28;45254;-81
2021/07/29 09:31:19;;;;;;;;;1.33;1.33;;;;;22.05;45.79;101148.59;4962614;28;45367;-80
2021/07/29 09:33:58;;;;;;;;;4.33;3.33;;;;;22.11;45.60;101154.56;4982665;28;45377;-79
2021/07/29 09:36:24;;;;;;;;;2.00;2.00;;;;;22.09;45.41;101152.91;4981281;28;45453;-78
2021/07/29 09:38:50;;;;;;;;;3.00;3.00;;;;;22.17;45.53;101150.72;4970911;28;45390;-79
2021/07/29 09:41:26;;;;;;;;;1.33;1.33;;;;;22.30;45.14;101146.56;4963664;28;45460;-77
2021/07/29 09:43:54;;;;;;;;;2.67;1.67;;;;;22.37;45.36;101149.84;4971996;28;47367;-77
2021/07/29 09:46:20;;;;;;;;;1.67;1.67;;;;;22.35;44.77;101143.69;4949019;28;45432;-79
2021/07/29 09:48:46;;;;;;;;;1.67;1.67;;;;;22.32;44.42;101141.13;4981423;28;45287;-77
2021/07/29 09:51:14;;;;;;;;;1.00;1.00;;;;;22.32;43.30;101151.84;4975548;28;45265;-78
2021/07/29 09:53:41;;;;;;;;;1.00;1.00;;;;;22.35;43.34;101160.66;4960778;28;46355;-79
2021/07/29 09:56:08;;;;;;;;;2.00;2.00;;;;;22.42;43.91;101153.19;4972496;28;45341;-79
2021/07/29 09:58:37;;;;;;;;;3.00;3.00;;;;;22.52;43.18;101143.75;4962871;28;45403;-83
2021/07/29 10:01:03;;;;;;;;;2.00;2.00;;;;;22.66;43.81;101143.09;4964058;28;45590;-81
2021/07/29 10:03:30;;;;;;;;;3.00;2.00;;;;;22.83;43.48;101148.53;4964477;28;46275;-83
2021/07/29 10:06:01;;;;;;;;;4.00;2.00;;;;;23.03;42.90;101158.31;4965731;28;45727;-82
2021/07/29 10:08:54;;;;;;;;;1.00;1.00;;;;;23.09;41.98;101141.03;4972653;28;45323;-82
2021/07/29 10:11:22;;;;;;;;;2.00;2.00;;;;;23.15;42.66;101138.06;4967717;28;45499;-81
2021/07/29 10:13:47;;;;;;;;;2.00;2.00;;;;;23.24;42.49;101144.78;4985472;28;45302;-81
2021/07/29 10:16:18;;;;;;;;;1.33;1.33;;;;;23.35;41.62;101142.41;4982471;28;45385;-88
2021/07/29 10:19:06;;;;;;;;;3.67;3.67;;;;;23.44;42.00;101139.28;4970040;28;45400;-87
2021/07/29 10:21:35;;;;;;;;;2.00;2.00;;;;;23.41;40.81;101136.72;4967231;28;45280;-84
2021/07/29 10:24:02;;;;;;;;;2.67;2.67;;;;;23.37;41.23;101137.84;4957231;28;47519;-81
2021/07/29 10:26:31;;;;;;;;;2.00;2.00;;;;;23.31;40.99;101136.34;4984135;28;45250;-91
2021/07/29 10:29:18;;;;;;;;;2.00;1.00;;;;;23.34;40.56;101140.69;4970070;28;45223;-86
2021/07/29 10:31:48;;;;;;;;;1.00;1.00;;;;;23.41;40.62;101125.97;4984366;28;45470;-84
2021/07/29 10:34:30;;;;;;;;;0.67;0.67;;;;;23.39;40.51;101132.38;4967457;28;47115;-91
2021/07/29 10:37:06;;;;;;;;;2.00;1.67;;;;;23.43;40.48;101133.97;4954643;28;45363;-91
2021/07/29 10:40:00;;;;;;;;;2.33;2.33;;;;;23.60;39.87;101127.72;4972291;28;45484;-93
2021/07/29 10:42:29;;;;;;;;;1.33;0.33;;;;;23.68;39.17;101123.72;4970738;28;45456;-91
2021/07/29 10:44:56;;;;;;;;;1.33;1.33;;;;;23.71;39.91;101128.03;4959899;28;47334;-93
2021/07/29 10:47:39;;;;;;;;;1.00;1.00;;;;;23.83;39.35;101132.78;4981309;28;45239;-86
2021/07/29 10:50:08;;;;;;;;;1.00;1.00;;;;;23.85;38.94;101125.53;4962108;28;45324;-90
2021/07/29 10:52:35;;;;;;;;;2.00;2.00;;;;;23.81;39.27;101129.31;4953199;28;45536;-87
2021/07/29 10:55:02;;;;;;;;;2.00;2.00;;;;;23.74;38.95;101134.16;4972104;28;48023;-89
2021/07/29 10:57:28;;;;;;;;;2.33;2.33;;;;;23.65;39.28;101126.53;4953802;28;45602;-89
2021/07/29 10:59:59;;;;;;;;;3.00;3.00;;;;;23.59;39.54;101126.00;4979629;28;45441;-95
2021/07/29 11:02:51;;;;;;;;;3.00;2.00;;;;;23.56;39.68;101135.09;4956463;28;45274;-91
2021/07/29 11:05:21;;;;;;;;;1.33;1.33;;;;;23.64;39.55;101127.50;4951403;28;47385;-88
2021/07/29 11:07:47;;;;;;;;;2.67;2.67;;;;;23.74;39.04;101128.78;4968723;28;45480;-88
2021/07/29 11:10:20;;;;;;;;;2.00;2.00;;;;;23.86;38.70;101124.56;4967394;28;45379;-93
2021/07/29 11:12:51;;;;;;;;;1.33;1.00;;;;;23.87;38.80;101128.13;4966874;28;46199;-87
2021/07/29 11:15:17;;;;;;;;;3.00;3.00;;;;;23.83;38.21;101122.03;4958639;28;47165;-85
2021/07/29 11:17:43;;;;;;;;;2.00;2.00;;;;;23.87;38.34;101120.03;4957396;28;45658;-82
2021/07/29 11:20:10;;;;;;;;;1.33;1.33;;;;;24.05;38.60;101120.88;4973919;28;45246;-82
2021/07/29 11:22:45;;;;;;;;;1.33;1.33;;;;;24.15;38.42;101123.00;4975626;28;45443;-90
2021/07/29 11:25:11;;;;;;;;;2.67;1.00;;;;;24.30;37.80;101117.72;4966072;28;47216;-87
2021/07/29 11:27:36;;;;;;;;;2.00;1.00;;;;;24.53;37.55;101109.28;4955472;28;45873;-89